Time;durP1;ratioP1;P1;durP2;ratioP2;P2;SDS_P1;SDS_P2;PMS_P1;PMS_P2;Temp;Humidity;BMP_temperature;BMP_pressure;BME280_temperature;BME280_humidity;BME280_pressure;Samples;Min_cycle;Max_cycle;Signal;HPM_P1;HPM_P2
2022/02/02 00:02:16;;;;;;;3.03;2.67;;;3.10;99.90;;;;;;4976386;28;20257;-58
2022/02/02 00:04:47;;;;;;;2.70;2.50;;;3.00;99.90;;;;;;4975892;28;20407;-54
2022/02/02 00:09:41;;;;;;;3.20;2.93;;;3.20;99.90;;;;;;4975980;28;20181;-57
2022/02/02 00:12:25;;;;;;;2.90;2.60;;;3.20;99.90;;;;;;4975962;28;20182;-57
2022/02/02 00:15:18;;;;;;;2.53;2.33;;;3.20;99.90;;;;;;4975556;28;20599;-60
2022/02/02 00:17:50;;;;;;;2.70;2.50;;;3.20;99.90;;;;;;4975915;28;20352;-56
2022/02/02 00:22:44;;;;;;;3.23;2.90;;;3.30;99.90;;;;;;4975939;28;20542;-56
2022/02/02 00:27:39;;;;;;;2.53;2.33;;;3.20;99.90;;;;;;4975681;28;20185;-55
2022/02/02 00:30:08;;;;;;;2.70;2.50;;;3.30;99.90;;;;;;4975309;28;20178;-57
2022/02/02 00:35:33;;;;;;;2.43;2.30;;;3.40;99.90;;;;;;4896609;29;20204;-55
2022/02/02 00:37:58;;;;;;;2.77;2.57;;;3.40;99.90;;;;;;4896854;29;20180;-57
2022/02/02 00:40:24;;;;;;;2.73;2.20;;;3.40;99.90;;;;;;4896816;29;20261;-56
2022/02/02 00:42:51;;;;;;;2.30;2.20;;;3.30;99.90;;;;;;4896847;29;20208;-57
2022/02/02 00:45:16;;;;;;;2.40;2.20;;;3.30;99.90;;;;;;4899444;29;20181;-57
2022/02/02 00:47:47;;;;;;;2.70;2.50;;;3.40;99.90;;;;;;4926752;29;20234;-58
2022/02/02 00:50:13;;;;;;;2.20;2.10;;;3.30;99.90;;;;;;4934600;29;20359;-57
2022/02/02 00:52:38;;;;;;;2.70;2.50;;;3.40;99.90;;;;;;4934449;29;20684;-56
2022/02/02 00:55:05;;;;;;;3.57;2.73;;;3.30;99.90;;;;;;4934684;29;20179;-57
2022/02/02 00:57:30;;;;;;;3.80;2.60;;;3.30;99.90;;;;;;4934878;29;20217;-57
2022/02/02 00:59:57;;;;;;;3.10;2.80;;;3.40;99.90;;;;;;4934433;29;20195;-57
2022/02/02 01:02:23;;;;;;;3.23;2.93;;;3.50;99.90;;;;;;4934640;29;20227;-52
2022/02/02 01:04:49;;;;;;;3.00;2.67;;;3.40;99.90;;;;;;4934206;29;20274;-54
2022/02/02 01:07:23;;;;;;;3.53;2.50;;;3.40;99.90;;;;;;4934157;29;20262;-55
2022/02/02 01:10:02;;;;;;;3.30;3.00;;;3.40;99.90;;;;;;4934161;29;20182;-52
2022/02/02 01:20:04;;;;;;;3.67;3.00;;;3.40;99.90;;;;;;5013598;28;20259;-57
2022/02/02 01:28:06;;;;;;;4.67;3.40;;;3.60;99.90;;;;;;4914688;29;20905;-52
2022/02/02 01:30:31;;;;;;;3.70;3.40;;;3.60;99.90;;;;;;4914754;29;20184;-55
2022/02/02 01:32:57;;;;;;;4.10;3.10;;;3.70;99.90;;;;;;4913681;29;20218;-53
2022/02/02 01:35:22;;;;;;;4.33;3.20;;;3.80;99.90;;;;;;4914655;29;20176;-56
2022/02/02 01:37:48;;;;;;;5.23;3.57;;;4.00;99.90;;;;;;4914751;29;20207;-59
2022/02/02 01:40:22;;;;;;;3.87;3.13;;;3.90;99.90;;;;;;4914467;29;20271;-56
2022/02/02 01:42:55;;;;;;;7.33;4.03;;;3.80;99.90;;;;;;4914563;29;20218;-56
2022/02/02 01:45:26;;;;;;;5.33;3.80;;;3.80;99.90;;;;;;4914271;29;20184;-57
2022/02/02 01:48:08;;;;;;;4.67;3.50;;;3.80;99.90;;;;;;4914583;29;20172;-55
2022/02/02 01:50:48;;;;;;;4.73;3.90;;;3.80;99.90;;;;;;4914425;29;20187;-56
2022/02/02 01:53:26;;;;;;;5.73;3.33;;;3.70;99.90;;;;;;4914481;29;20192;-53
2022/02/02 01:55:52;;;;;;;6.27;3.70;;;3.60;99.90;;;;;;4914176;29;20211;-53
2022/02/02 02:01:02;;;;;;;6.77;3.80;;;3.70;99.90;;;;;;4917625;28;20227;-56
2022/02/02 02:03:27;;;;;;;6.80;3.47;;;3.70;99.90;;;;;;5012900;28;20185;-56
2022/02/02 02:05:53;;;;;;;4.63;3.17;;;3.70;99.90;;;;;;5012769;28;20176;-53
2022/02/02 02:08:19;;;;;;;4.00;3.20;;;3.70;99.90;;;;;;5012708;28;20668;-58
2022/02/02 02:10:45;;;;;;;3.50;3.17;;;3.80;99.90;;;;;;5012801;28;20183;-59
2022/02/02 02:14:34;;;;;;;5.07;3.30;;;3.80;99.90;;;;;;5012832;28;20198;-56
2022/02/02 02:15:58;;;;;;;5.27;3.20;;;3.80;99.90;;;;;;5011750;28;20298;-58
2022/02/02 02:18:23;;;;;;;4.70;3.27;;;3.90;99.90;;;;;;5012614;28;20211;-57
2022/02/02 02:20:50;;;;;;;6.43;2.70;;;3.90;99.90;;;;;;5012642;28;20172;-55
2022/02/02 02:23:18;;;;;;;5.13;2.83;;;3.90;99.90;;;;;;5012558;28;20192;-56
2022/02/02 02:25:43;;;;;;;7.87;2.97;;;3.90;99.90;;;;;;5012472;28;20219;-56
2022/02/02 02:28:29;;;;;;;3.93;2.60;;;3.90;99.90;;;;;;5012470;28;20653;-57
2022/02/02 02:31:00;;;;;;;4.90;2.87;;;3.90;99.90;;;;;;5012553;28;20179;-58
2022/02/02 02:57:26;;;;;;;7.30;3.23;;;4.10;99.90;;;;;;5012180;28;20290;-57
2022/02/02 03:29:55;;;;;;;5.50;3.13;;;4.20;99.90;;;;;;5011826;28;20277;-55
2022/02/02 03:54:45;;;;;;;4.20;2.70;;;4.10;99.90;;;;;;5011859;28;20254;-58
2022/02/02 04:06:08;;;;;;;4.87;2.77;;;4.20;99.90;;;;;;4916315;29;20541;-57
2022/02/02 04:10:50;;;;;;;3.70;2.57;;;4.10;99.90;;;;;;5015327;28;20192;-57
2022/02/02 05:04:12;;;;;;;6.00;2.00;;;4.10;99.90;;;;;;4915302;29;20202;-58
2022/02/02 05:06:45;;;;;;;4.77;1.63;;;4.10;99.90;;;;;;4915106;29;20549;-58
2022/02/02 05:16:50;;;;;;;5.93;1.90;;;4.20;99.90;;;;;;5013717;28;20232;-60
2022/02/02 05:19:53;;;;;;;6.23;2.07;;;4.30;99.90;;;;;;5004172;28;20185;-60
2022/02/02 05:28:53;;;;;;;3.03;1.67;;;4.30;99.90;;;;;;4953080;29;20193;-53
2022/02/02 05:41:45;;;;;;;7.50;2.60;;;4.50;99.90;;;;;;4953169;29;20225;-56
2022/02/02 05:52:20;;;;;;;8.40;2.50;;;4.20;99.90;;;;;;4914390;29;20194;-56
2022/02/02 05:54:45;;;;;;;8.73;2.83;;;4.20;99.90;;;;;;4914232;29;20203;-58
2022/02/02 05:57:13;;;;;;;7.67;3.17;;;4.30;99.90;;;;;;4931654;29;20225;-59
2022/02/02 05:59:41;;;;;;;9.90;3.30;;;4.30;99.90;;;;;;4952359;29;20191;-57
2022/02/02 06:02:10;;;;;;;8.47;2.70;;;4.30;99.90;;;;;;4952387;29;20353;-57
2022/02/02 06:04:46;;;;;;;8.50;3.10;;;4.30;99.90;;;;;;4977525;28;20205;-58
2022/02/02 06:07:15;;;;;;;6.13;2.77;;;4.30;99.90;;;;;;4993240;28;20172;-50
2022/02/02 06:09:46;;;;;;;11.50;3.03;;;4.30;99.90;;;;;;4993192;28;20173;-59
2022/02/02 06:12:17;;;;;;;6.37;2.60;;;4.40;99.90;;;;;;4993333;28;20169;-59
2022/02/02 06:14:44;;;;;;;7.87;2.90;;;4.40;99.90;;;;;;4992890;28;20188;-58
2022/02/02 06:17:10;;;;;;;8.40;3.10;;;4.50;99.90;;;;;;4993116;28;20209;-58
2022/02/02 06:19:36;;;;;;;6.77;2.53;;;4.50;99.90;;;;;;4992301;28;20650;-58
2022/02/02 06:22:08;;;;;;;6.80;2.70;;;4.50;99.90;;;;;;4993368;28;20677;-57
2022/02/02 06:24:40;;;;;;;9.43;3.50;;;4.50;99.90;;;;;;4992827;28;20188;-57
2022/02/02 06:27:10;;;;;;;11.47;3.30;;;4.50;99.90;;;;;;4992813;28;20208;-57
2022/02/02 06:29:42;;;;;;;8.93;2.83;;;4.60;99.90;;;;;;4991816;28;20188;-58
2022/02/02 06:32:16;;;;;;;7.23;2.73;;;4.50;99.90;;;;;;4992078;28;20169;-58
2022/02/02 06:34:44;;;;;;;10.17;2.90;;;4.50;99.90;;;;;;4991814;28;20697;-58
2022/02/02 06:37:12;;;;;;;8.90;2.50;;;4.40;99.90;;;;;;4992124;28;20205;-57
2022/02/02 06:39:39;;;;;;;3.73;2.30;;;4.30;99.90;;;;;;4992151;28;20172;-59
2022/02/02 06:42:09;;;;;;;7.63;2.70;;;4.20;99.90;;;;;;4992344;28;20264;-55
2022/02/02 06:44:40;;;;;;;6.77;2.67;;;4.20;99.90;;;;;;4991585;28;20737;-53
2022/02/02 06:47:07;;;;;;;6.47;2.67;;;4.20;99.90;;;;;;4991879;28;20192;-56
2022/02/02 06:49:33;;;;;;;9.17;2.60;;;4.30;99.90;;;;;;4991573;28;20177;-55
2022/02/02 06:52:06;;;;;;;7.83;2.70;;;4.20;99.90;;;;;;4991749;28;20169;-56
2022/02/02 06:54:50;;;;;;;8.20;3.13;;;4.30;99.90;;;;;;4982160;28;20204;-53
2022/02/02 06:57:34;;;;;;;8.07;2.53;;;4.30;99.90;;;;;;4986766;28;20193;-54
2022/02/02 07:00:21;;;;;;;8.67;2.83;;;4.30;99.90;;;;;;4992211;28;20168;-56
2022/02/02 07:03:06;;;;;;;7.50;2.43;;;4.20;99.90;;;;;;4992506;28;20193;-55
2022/02/02 07:06:02;;;;;;;6.33;2.57;;;4.20;99.90;;;;;;4992117;28;20192;-54
2022/02/02 07:08:43;;;;;;;8.10;2.57;;;4.20;99.90;;;;;;4988227;28;20553;-53
2022/02/02 07:11:24;;;;;;;5.57;2.60;;;4.20;99.90;;;;;;4992142;28;20735;-55
2022/02/02 07:24:30;;;;;;;5.33;1.80;;;4.20;99.90;;;;;;4992005;28;20219;-55
2022/02/02 07:29:39;;;;;;;4.83;2.20;;;4.20;99.90;;;;;;4992121;28;20183;-53
2022/02/02 07:32:20;;;;;;;5.70;2.10;;;4.20;99.90;;;;;;4978303;28;20181;-57
2022/02/02 07:35:11;;;;;;;8.07;2.70;;;4.30;99.90;;;;;;4995734;28;20218;-56
2022/02/02 07:37:35;;;;;;;8.37;2.43;;;4.30;99.90;;;;;;4995307;28;20255;-57
2022/02/02 07:40:06;;;;;;;8.87;2.80;;;4.20;99.90;;;;;;4995944;28;20169;-56
2022/02/02 07:42:33;;;;;;;17.13;9.20;;;4.20;99.90;;;;;;4995890;28;20642;-50
2022/02/02 07:45:10;;;;;;;8.20;3.37;;;4.20;99.90;;;;;;4995576;28;20165;-56
2022/02/02 07:47:42;;;;;;;9.40;3.00;;;4.30;99.90;;;;;;4995898;28;20228;-58
2022/02/02 07:50:10;;;;;;;10.80;3.00;;;4.40;99.90;;;;;;4995531;28;20264;-57
2022/02/02 07:52:37;;;;;;;7.43;2.47;;;4.40;99.90;;;;;;4995658;28;20181;-53
2022/02/02 07:55:04;;;;;;;10.53;3.03;;;4.40;99.90;;;;;;4995534;28;20264;-51
2022/02/02 07:57:31;;;;;;;9.17;3.23;;;4.40;99.90;;;;;;4995532;28;20288;-53
2022/02/02 08:00:04;;;;;;;11.90;4.17;;;4.40;99.90;;;;;;4995218;28;20764;-52
2022/02/02 08:05:00;;;;;;;11.57;3.50;;;4.40;99.90;;;;;;4995493;28;20180;-56
2022/02/02 08:07:32;;;;;;;9.43;3.57;;;4.30;99.90;;;;;;4995574;28;20570;-54
2022/02/02 08:12:42;;;;;;;11.40;3.67;;;4.50;99.90;;;;;;4995620;28;20234;-55
2022/02/02 08:15:09;;;;;;;11.90;3.47;;;4.50;99.90;;;;;;4995172;28;20181;-55
2022/02/02 08:17:35;;;;;;;9.37;3.47;;;4.60;99.90;;;;;;4995286;28;20225;-55
2022/02/02 08:20:01;;;;;;;11.80;4.07;;;5.30;99.90;;;;;;4995088;28;20645;-55
2022/02/02 08:22:29;;;;;;;12.67;3.67;;;5.70;99.90;;;;;;4995202;28;20174;-59
2022/02/02 08:24:56;;;;;;;10.10;3.73;;;5.50;99.90;;;;;;4994971;28;20961;-59
2022/02/02 08:27:22;;;;;;;11.77;3.77;;;5.20;99.90;;;;;;4995080;28;20174;-59
2022/02/02 08:29:47;;;;;;;7.73;3.07;;;5.10;99.90;;;;;;4994720;28;20170;-54
2022/02/02 08:32:14;;;;;;;13.03;4.57;;;5.00;99.90;;;;;;4994979;28;20181;-59
2022/02/02 08:34:45;;;;;;;16.37;4.67;;;5.00;99.90;;;;;;4994671;28;20641;-57
2022/02/02 08:37:11;;;;;;;12.43;5.30;;;4.90;99.90;;;;;;4994753;28;20193;-57
2022/02/02 08:42:05;;;;;;;8.87;2.73;;;4.70;99.90;;;;;;4994553;28;20204;-58
2022/02/02 08:44:43;;;;;;;5.80;2.97;;;4.60;99.90;;;;;;4994447;28;20964;-55
2022/02/02 08:47:11;;;;;;;8.33;5.83;;;4.60;99.90;;;;;;4995010;28;20177;-58
2022/02/02 08:49:44;;;;;;;10.07;4.97;;;4.60;99.90;;;;;;4994524;28;20539;-56
2022/02/02 08:52:10;;;;;;;5.53;2.53;;;4.70;99.90;;;;;;4994890;28;20169;-58
2022/02/02 08:54:45;;;;;;;13.63;8.33;;;4.50;99.90;;;;;;4994509;28;20269;-53
2022/02/02 08:57:26;;;;;;;3.63;1.80;;;4.40;99.90;;;;;;4994684;28;20208;-52
2022/02/02 09:00:03;;;;;;;9.07;5.83;;;4.10;99.90;;;;;;4994342;28;20179;-55
2022/02/02 09:02:32;;;;;;;18.97;17.10;;;4.00;99.90;;;;;;4994671;28;20164;-57
2022/02/02 09:07:41;;;;;;;4.50;2.20;;;4.20;99.90;;;;;;4994600;28;20231;-53
2022/02/02 09:10:14;;;;;;;6.67;3.23;;;4.50;99.90;;;;;;4994233;28;20181;-58
2022/02/02 09:31:30;;;;;;;6.17;4.17;;;9.20;99.90;;;;;;4994345;28;20665;-54
2022/02/02 09:36:29;;;;;;;6.23;2.77;;;8.50;99.90;;;;;;4994422;28;20295;-57
2022/02/02 09:38:59;;;;;;;5.03;3.00;;;7.70;99.90;;;;;;4993945;28;20184;-56
2022/02/02 09:43:58;;;;;;;8.37;4.77;;;7.10;99.90;;;;;;4993641;28;20193;-57
2022/02/02 09:46:29;;;;;;;7.93;3.73;;;6.70;99.90;;;;;;4993747;28;20189;-59
2022/02/02 09:49:01;;;;;;;11.43;6.10;;;6.40;99.90;;;;;;4975996;28;20189;-58
2022/02/02 09:52:02;;;;;;;6.80;2.70;;;6.10;99.90;;;;;;4993087;28;20177;-58
2022/02/02 09:54:27;;;;;;;5.23;2.00;;;5.70;99.90;;;;;;4989111;28;20279;-57
2022/02/02 10:04:45;;;;;;;4.50;2.07;;;7.30;99.90;;;;;;4993106;28;20722;-56
2022/02/02 10:10:14;;;;;;;5.30;2.10;;;8.00;99.90;;;;;;4977791;28;20239;-58
2022/02/02 10:15:21;;;;;;;7.87;3.00;;;8.90;99.90;;;;;;4992779;28;20177;-58
2022/02/02 10:18:06;;;;;;;7.77;2.90;;;8.90;99.90;;;;;;4993017;28;20211;-59
2022/02/02 10:20:33;;;;;;;5.50;2.27;;;9.20;99.90;;;;;;4992952;28;20172;-58
2022/02/02 10:23:00;;;;;;;6.10;2.73;;;9.30;99.90;;;;;;4992982;28;20292;-57
2022/02/02 10:25:31;;;;;;;8.30;3.07;;;8.90;99.90;;;;;;4992587;28;20170;-58
2022/02/02 10:28:11;;;;;;;7.93;2.70;;;8.20;99.90;;;;;;4992745;28;20177;-59
2022/02/02 10:30:40;;;;;;;9.47;3.13;;;7.90;99.90;;;;;;4992726;28;20173;-60
2022/02/02 10:33:11;;;;;;;11.90;3.03;;;7.40;99.90;;;;;;4992857;28;20216;-58
2022/02/02 10:35:42;;;;;;;8.87;3.07;;;7.10;99.90;;;;;;4992584;28;20212;-59
2022/02/02 10:38:17;;;;;;;7.60;2.70;;;7.10;99.90;;;;;;4992452;28;20291;-58
2022/02/02 10:43:56;;;;;;;6.53;2.60;;;7.50;99.90;;;;;;4913397;29;20275;-58
2022/02/02 10:49:09;;;;;;;6.27;2.40;;;6.80;99.90;;;;;;4913525;29;20206;-58
2022/02/02 10:56:49;;;;;;;7.70;2.60;;;7.00;99.90;;;;;;4913289;29;20234;-57
2022/02/02 11:07:01;;;;;;;4.37;1.90;;;14.20;99.90;;;;;;4913478;29;20202;-55
2022/02/02 11:09:29;;;;;;;4.20;1.73;;;14.30;99.90;;;;;;4913220;29;20196;-58
2022/02/02 11:11:56;;;;;;;2.43;1.53;;;13.00;99.90;;;;;;4913428;29;20271;-57
2022/02/02 11:14:37;;;;;;;2.77;1.57;;;13.30;99.90;;;;;;4913312;29;20213;-57
2022/02/02 11:17:15;;;;;;;3.27;1.43;;;15.20;99.90;;;;;;4913431;29;20302;-58
2022/02/02 11:19:47;;;;;;;4.00;1.60;;;17.20;99.90;;;;;;4928649;28;20192;-61
2022/02/02 11:22:18;;;;;;;3.47;1.80;;;19.00;99.90;;;;;;4974958;28;20187;-53
2022/02/02 11:24:44;;;;;;;3.88;1.65;;;19.70;98.90;;;;;;4992179;28;20544;-59
2022/02/02 11:27:37;;;;;;;3.05;1.65;;;20.80;97.30;;;;;;4991982;28;20180;-57
2022/02/02 11:30:08;;;;;;;1.75;1.15;;;20.90;93.90;;;;;;4991759;28;20231;-56
2022/02/02 11:32:45;;;;;;;4.32;1.70;;;19.80;94.60;;;;;;4992006;28;20210;-57
2022/02/02 11:35:31;;;;;;;3.93;1.70;;;18.10;97.10;;;;;;4991421;28;20205;-56
2022/02/02 11:37:59;;;;;;;3.50;1.73;;;16.10;99.00;;;;;;4992039;28;20196;-59
2022/02/02 11:40:27;;;;;;;5.03;2.23;;;15.60;99.90;;;;;;4991917;28;20168;-56
2022/02/02 11:45:52;;;;;;;4.63;2.07;;;12.70;99.90;;;;;;4991982;28;20180;-58
2022/02/02 11:48:59;;;;;;;4.67;1.60;;;13.30;99.90;;;;;;4993284;28;20181;-55
2022/02/02 11:52:04;;;;;;;3.33;1.87;;;13.40;99.90;;;;;;4991818;28;20654;-56
2022/02/02 11:54:32;;;;;;;12.40;5.70;;;12.60;99.90;;;;;;4991633;28;20271;-60
2022/02/02 11:56:58;;;;;;;14.93;10.17;;;13.30;99.90;;;;;;4991707;28;20574;-58
2022/02/02 12:05:17;;;;;;;4.37;1.80;;;15.90;99.90;;;;;;4992031;28;20177;-57
2022/02/02 12:10:59;;;;;;;4.43;2.03;;;13.10;99.90;;;;;;4992035;28;20185;-59
2022/02/02 12:45:19;;;;;;;0.80;0.80;;;6.80;99.90;;;;;;4994816;28;20199;-58
2022/02/02 12:47:47;;;;;;;3.17;1.10;;;6.40;99.90;;;;;;4994030;28;20193;-57
2022/02/02 12:53:36;;;;;;;3.20;0.87;;;6.10;99.90;;;;;;4994652;28;20185;-58
2022/02/02 12:56:25;;;;;;;2.17;1.20;;;5.80;99.90;;;;;;4994472;28;20665;-56
2022/02/02 12:59:11;;;;;;;4.17;1.03;;;5.70;99.90;;;;;;4994484;28;20169;-56
2022/02/02 13:01:37;;;;;;;3.13;1.00;;;5.70;99.90;;;;;;4994498;28;20220;-53
2022/02/02 13:04:03;;;;;;;3.20;1.03;;;5.50;99.90;;;;;;4994570;28;20189;-57
2022/02/02 13:06:39;;;;;;;3.37;1.30;;;5.30;99.90;;;;;;4994361;28;20173;-57
2022/02/02 13:09:05;;;;;;;3.17;1.50;;;5.30;99.90;;;;;;4994307;28;20176;-58
2022/02/02 13:11:34;;;;;;;2.97;1.40;;;5.30;99.90;;;;;;4994366;28;20650;-58
2022/02/02 13:14:03;;;;;;;2.60;1.20;;;5.20;99.90;;;;;;4994278;28;20544;-56
2022/02/02 13:16:29;;;;;;;4.13;1.27;;;5.10;99.90;;;;;;4993923;28;20197;-60
2022/02/02 13:19:01;;;;;;;4.70;1.33;;;5.10;99.90;;;;;;4993988;28;20172;-57
2022/02/02 13:24:11;;;;;;;2.60;1.27;;;5.40;99.90;;;;;;4994243;28;20397;-54
2022/02/02 13:26:49;;;;;;;2.47;0.90;;;5.90;99.90;;;;;;4994014;28;20200;-59
2022/02/02 13:34:49;;;;;;;3.20;1.07;;;8.40;99.90;;;;;;4993972;28;20293;-60
2022/02/02 13:42:57;;;;;;;1.00;0.90;;;11.00;99.90;;;;;;4994072;28;20241;-57
2022/02/02 14:01:38;;;;;;;5.37;4.20;;;12.30;99.90;;;;;;4993608;28;20173;-58
2022/02/02 14:10:07;;;;;;;3.33;1.20;;;13.40;99.90;;;;;;4993358;28;20249;-57
2022/02/02 14:26:12;;;;;;;2.03;1.30;;;13.80;99.90;;;;;;4914220;29;20554;-60
2022/02/02 14:31:24;;;;;;;3.03;1.50;;;14.90;99.90;;;;;;4914048;29;20175;-54
2022/02/02 14:33:52;;;;;;;3.43;1.37;;;15.50;99.90;;;;;;4913768;29;20275;-59
2022/02/02 14:36:24;;;;;;;2.83;1.43;;;15.40;99.90;;;;;;4913568;29;20207;-59
2022/02/02 14:44:07;;;;;;;2.80;1.10;;;14.90;99.90;;;;;;4913098;29;20239;-57
2022/02/02 14:46:42;;;;;;;2.40;1.07;;;14.70;99.90;;;;;;4913431;29;20184;-58
2022/02/02 14:52:11;;;;;;;2.50;1.30;;;12.90;99.90;;;;;;4924816;29;20233;-58
2022/02/02 15:24:11;;;;;;;5.23;1.67;;;7.80;99.90;;;;;;4951419;29;20201;-59
2022/02/02 15:31:58;;;;;;;6.07;2.00;;;7.60;99.90;;;;;;4992352;28;20239;-61
2022/02/02 15:34:59;;;;;;;6.97;2.00;;;7.60;99.90;;;;;;4992082;28;20258;-60
2022/02/02 15:58:31;;;;;;;6.03;2.03;;;7.30;99.90;;;;;;4995492;28;20180;-59
2022/02/02 16:03:29;;;;;;;5.07;1.80;;;7.10;99.90;;;;;;4995679;28;20221;-58
2022/02/02 16:05:59;;;;;;;7.73;2.63;;;7.00;99.90;;;;;;4995439;28;20228;-58
2022/02/02 16:08:27;;;;;;;6.33;2.33;;;6.80;99.90;;;;;;4995442;28;20181;-58
2022/02/02 16:13:37;;;;;;;3.90;1.80;;;6.70;99.90;;;;;;4995411;28;20697;-58
2022/02/02 16:37:38;;;;;;;5.77;1.80;;;6.10;99.90;;;;;;4995010;28;20259;-55
2022/02/02 16:40:07;;;;;;;5.27;2.00;;;6.00;99.90;;;;;;4994759;28;20166;-60
2022/02/02 16:45:17;;;;;;;5.93;1.97;;;6.00;99.90;;;;;;4995103;28;20231;-54
2022/02/02 16:47:43;;;;;;;7.30;2.27;;;5.90;99.90;;;;;;4994952;28;20182;-57
2022/02/02 16:50:15;;;;;;;6.80;2.43;;;5.90;99.90;;;;;;4977183;28;20597;-58
2022/02/02 16:52:41;;;;;;;6.37;2.00;;;5.90;99.90;;;;;;4994787;28;20181;-57
2022/02/02 16:55:14;;;;;;;6.23;2.40;;;6.00;99.90;;;;;;4994462;28;20272;-60
2022/02/02 16:57:58;;;;;;;6.80;2.00;;;6.00;99.90;;;;;;4994638;28;20209;-57
2022/02/02 17:28:51;;;;;;;5.63;2.33;;;6.20;99.90;;;;;;4994345;28;20188;-57
2022/02/02 17:33:13;;;;;;;5.70;2.70;;;6.10;99.90;;;;;;4993951;28;20686;-55
2022/02/02 17:38:25;;;;;;;7.57;3.00;;;5.90;99.90;;;;;;4993803;28;20263;-59
2022/02/02 17:44:04;;;;;;;6.17;3.03;;;5.90;99.90;;;;;;4993801;28;20203;-57
2022/02/02 18:18:49;;;;;;;13.07;6.53;;;5.90;99.90;;;;;;4992895;28;20192;-55
2022/02/02 18:21:17;;;;;;;36.50;20.70;;;6.00;99.90;;;;;;4993145;28;20181;-53
2022/02/02 18:23:57;;;;;;;18.37;10.40;;;6.10;99.90;;;;;;4992977;28;20244;-55
2022/02/02 18:26:28;;;;;;;7.83;4.10;;;6.10;99.90;;;;;;4993208;28;20689;-54
2022/02/02 18:31:49;;;;;;;34.93;26.40;;;6.10;99.90;;;;;;4993037;28;20737;-56
2022/02/02 18:37:13;;;;;;;3.67;1.90;;;6.20;99.90;;;;;;4992963;28;20207;-56
2022/02/02 19:07:16;;;;;;;6.33;1.87;;;5.70;99.90;;;;;;4992523;28;20549;-54
2022/02/02 19:37:24;;;;;;;5.97;2.13;;;5.30;99.90;;;;;;4861156;29;20212;-51
2022/02/02 20:12:03;;;;;;;5.37;2.10;;;5.00;99.90;;;;;;4995808;28;20243;-54
2022/02/02 20:14:29;;;;;;;4.73;2.10;;;5.00;99.90;;;;;;4986611;28;20317;-55
2022/02/02 20:16:55;;;;;;;6.83;2.30;;;4.90;99.90;;;;;;4952353;28;20291;-52
2022/02/02 20:19:20;;;;;;;4.53;2.13;;;4.90;99.90;;;;;;4985484;28;20181;-54
2022/02/02 20:21:50;;;;;;;4.67;1.80;;;4.80;99.90;;;;;;4984233;28;20202;-53
2022/02/02 20:24:20;;;;;;;5.57;2.00;;;4.80;99.90;;;;;;4985439;28;20193;-57
2022/02/02 20:26:48;;;;;;;3.93;2.00;;;4.80;99.90;;;;;;4967725;28;20193;-54
2022/02/02 20:29:14;;;;;;;3.50;1.83;;;4.90;99.90;;;;;;4984339;28;20377;-52
2022/02/02 20:31:40;;;;;;;4.03;2.00;;;5.00;99.90;;;;;;4984927;28;20169;-52
2022/02/02 20:34:06;;;;;;;3.07;1.90;;;5.00;99.90;;;;;;4944802;29;20233;-55
2022/02/02 20:36:33;;;;;;;5.03;2.10;;;4.90;99.90;;;;;;4942736;29;20736;-53
2022/02/02 20:38:58;;;;;;;4.30;1.90;;;4.90;99.90;;;;;;4943527;29;20838;-53
2022/02/02 20:41:24;;;;;;;5.90;2.07;;;4.90;99.90;;;;;;4944906;29;20231;-53
2022/02/02 20:44:03;;;;;;;6.63;2.73;;;4.80;99.90;;;;;;4942857;29;20230;-53
2022/02/02 21:11:36;;;;;;;5.87;2.03;;;5.30;99.90;;;;;;4945472;29;20263;-52
2022/02/02 21:14:01;;;;;;;5.03;1.93;;;5.30;99.90;;;;;;4945569;29;20216;-53
2022/02/02 21:16:30;;;;;;;3.80;1.83;;;5.30;99.90;;;;;;4944152;29;20615;-54
2022/02/02 21:18:58;;;;;;;5.00;2.50;;;5.40;99.90;;;;;;4942828;29;20167;-54
2022/02/02 21:21:36;;;;;;;6.27;2.33;;;5.30;99.90;;;;;;4942750;29;20240;-56
2022/02/02 21:27:14;;;;;;;5.90;2.57;;;5.00;99.90;;;;;;4943578;29;20294;-53
2022/02/02 21:29:35;;;;;;;8.33;2.70;;;4.90;99.90;;;;;;4945407;29;20178;-51
2022/02/02 21:32:01;;;;;;;5.10;2.60;;;4.80;99.90;;;;;;4942747;29;20660;-49
2022/02/02 21:34:27;;;;;;;10.47;2.70;;;4.70;99.90;;;;;;4927920;29;20219;-54
2022/02/02 21:36:54;;;;;;;7.63;2.90;;;4.70;99.90;;;;;;4942334;29;20203;-53
2022/02/02 21:39:23;;;;;;;8.23;2.87;;;4.70;99.90;;;;;;4965007;28;20189;-54
2022/02/02 21:41:51;;;;;;;5.90;2.40;;;4.70;99.90;;;;;;4985256;28;20223;-54
2022/02/02 21:44:17;;;;;;;4.97;2.40;;;4.70;99.90;;;;;;4985121;28;20277;-53
2022/02/02 21:46:43;;;;;;;6.07;2.73;;;4.80;99.90;;;;;;4984439;28;20169;-56
2022/02/02 21:49:16;;;;;;;6.97;2.73;;;4.90;99.90;;;;;;4981350;28;20174;-53
2022/02/02 21:51:55;;;;;;;7.97;2.60;;;5.00;99.90;;;;;;4983253;28;20181;-53
2022/02/02 21:54:21;;;;;;;4.43;2.37;;;4.90;99.90;;;;;;4983185;28;20200;-53
2022/02/02 21:56:46;;;;;;;4.87;2.57;;;4.90;99.90;;;;;;4967032;28;20200;-52
2022/02/02 21:59:12;;;;;;;6.63;2.73;;;4.90;99.90;;;;;;4982398;28;20184;-56
2022/02/02 22:01:38;;;;;;;5.57;2.40;;;4.80;99.90;;;;;;4983620;28;20186;-53
2022/02/02 22:04:03;;;;;;;6.80;2.50;;;4.60;99.90;;;;;;4983979;28;20197;-56
2022/02/02 22:06:30;;;;;;;4.10;2.53;;;4.50;99.90;;;;;;4982224;28;20172;-54
2022/02/02 22:08:55;;;;;;;5.40;2.33;;;4.40;99.90;;;;;;4983596;28;20546;-55
2022/02/02 22:11:22;;;;;;;5.20;2.23;;;4.30;99.90;;;;;;4983755;28;20178;-56
2022/02/02 22:13:58;;;;;;;4.80;2.27;;;4.40;99.90;;;;;;4981982;28;20192;-56
2022/02/02 22:16:24;;;;;;;4.40;2.00;;;4.30;99.90;;;;;;4982573;28;20180;-56
2022/02/02 22:18:51;;;;;;;4.27;2.60;;;4.40;99.90;;;;;;4984026;28;20184;-56
2022/02/02 22:21:17;;;;;;;7.83;2.50;;;4.20;99.90;;;;;;4982994;28;20213;-50
2022/02/02 22:23:43;;;;;;;5.67;2.43;;;4.10;99.90;;;;;;4982518;28;20192;-52
2022/02/02 22:26:09;;;;;;;5.17;2.33;;;4.10;99.90;;;;;;4983824;28;20516;-54
2022/02/02 22:28:35;;;;;;;6.10;1.90;;;3.90;99.90;;;;;;4982249;28;20177;-52
2022/02/02 22:31:01;;;;;;;5.87;1.90;;;3.70;99.90;;;;;;4982678;28;20551;-52
2022/02/02 22:33:26;;;;;;;3.40;1.70;;;3.60;99.90;;;;;;4983736;28;20217;-56
2022/02/02 22:35:53;;;;;;;4.20;1.70;;;3.60;99.90;;;;;;4981912;28;20178;-54
2022/02/02 22:38:18;;;;;;;2.83;1.60;;;3.60;99.90;;;;;;4982570;28;20204;-55
2022/02/02 22:40:44;;;;;;;3.30;1.70;;;3.50;99.90;;;;;;4966406;28;20826;-52
2022/02/02 22:43:11;;;;;;;4.43;2.20;;;3.50;99.90;;;;;;4981610;28;20674;-51
2022/02/02 22:45:44;;;;;;;3.67;2.50;;;3.50;99.90;;;;;;4982764;28;20252;-55
2022/02/02 22:48:10;;;;;;;4.00;2.40;;;3.50;99.90;;;;;;4976086;28;20647;-56
2022/02/02 22:50:36;;;;;;;6.40;2.67;;;3.40;99.90;;;;;;4973268;28;20173;-52
2022/02/02 22:53:03;;;;;;;4.00;2.27;;;3.40;99.90;;;;;;4973358;28;20197;-52
2022/02/02 22:55:29;;;;;;;6.07;3.03;;;3.50;99.90;;;;;;4973053;28;20182;-56
2022/02/02 22:57:54;;;;;;;8.10;2.87;;;3.50;99.90;;;;;;4973151;28;20202;-53
2022/02/02 23:00:32;;;;;;;7.00;2.60;;;3.50;99.90;;;;;;4972872;28;20639;-54
2022/02/02 23:03:00;;;;;;;6.80;2.97;;;3.50;99.90;;;;;;4973151;28;20189;-54
2022/02/02 23:05:34;;;;;;;6.27;3.00;;;3.60;99.90;;;;;;4955746;28;20281;-52
2022/02/02 23:08:01;;;;;;;9.67;3.30;;;3.60;99.90;;;;;;4972971;28;20177;-55
2022/02/02 23:10:28;;;;;;;8.60;3.07;;;3.60;99.90;;;;;;4973100;28;20174;-53
2022/02/02 23:12:53;;;;;;;7.33;3.20;;;3.50;99.90;;;;;;4973011;28;20178;-55
2022/02/02 23:15:25;;;;;;;7.30;3.37;;;3.50;99.90;;;;;;4972964;28;20717;-53
2022/02/02 23:17:51;;;;;;;4.97;2.87;;;3.40;99.90;;;;;;4973076;28;20288;-55
2022/02/02 23:20:17;;;;;;;7.20;3.03;;;4.80;99.90;;;;;;4972935;28;20253;-56
2022/02/02 23:22:49;;;;;;;5.83;3.30;;;3.50;99.90;;;;;;4972848;28;20612;-52
2022/02/02 23:25:19;;;;;;;8.70;3.63;;;3.50;99.90;;;;;;4972816;28;20205;-54
2022/02/02 23:27:46;;;;;;;5.97;3.23;;;3.60;99.90;;;;;;4972894;28;20181;-52
2022/02/02 23:30:16;;;;;;;7.87;3.20;;;3.70;99.90;;;;;;4972817;28;20173;-54
2022/02/02 23:32:43;;;;;;;7.00;3.33;;;3.80;99.90;;;;;;4972713;28;20178;-55
2022/02/02 23:35:12;;;;;;;6.83;3.40;;;3.90;99.90;;;;;;4972735;28;20519;-56
2022/02/02 23:37:39;;;;;;;6.23;3.30;;;3.90;99.90;;;;;;4972757;28;20256;-56
2022/02/02 23:40:08;;;;;;;8.40;3.60;;;3.90;99.90;;;;;;4972658;28;20170;-53
2022/02/02 23:42:37;;;;;;;7.20;3.37;;;3.90;99.90;;;;;;4972928;28;20181;-55
2022/02/02 23:45:07;;;;;;;9.43;3.77;;;3.90;99.90;;;;;;4972646;28;20189;-57
2022/02/02 23:47:35;;;;;;;6.33;3.63;;;3.90;99.90;;;;;;4974051;28;20188;-56
2022/02/02 23:50:07;;;;;;;7.93;3.50;;;4.00;99.90;;;;;;4972553;28;20240;-55
2022/02/02 23:52:55;;;;;;;10.50;3.80;;;4.00;99.90;;;;;;4972834;28;20591;-56
2022/02/02 23:55:30;;;;;;;10.13;3.87;;;4.10;99.90;;;;;;4972073;28;20198;-52
2022/02/02 23:58:05;;;;;;;5.63;3.40;;;4.00;99.90;;;;;;4972457;28;20667;-56
